sensor_id;sensor_type;location;lat;lon;timestamp;pressure;altitude;pressure_sealevel;temperature;humidity
56721;BME280;53183;47.412;18.884;2023-03-23T00:01:21;99118.94;;;5.64;92.33
56721;BME280;53183;47.412;18.884;2023-03-23T00:03:49;99117.03;;;5.68;92.22
56721;BME280;53183;47.412;18.884;2023-03-23T00:06:17;99119.41;;;5.74;91.90
56721;BME280;53183;47.412;18.884;2023-03-23T00:08:46;99120.38;;;5.72;91.81
56721;BME280;53183;47.412;18.884;2023-03-23T00:11:14;99118.44;;;5.77;91.69
56721;BME280;53183;47.412;18.884;2023-03-23T00:13:42;99117.13;;;5.67;91.59
56721;BME280;53183;47.412;18.884;2023-03-23T00:16:09;99110.88;;;5.69;91.98
56721;BME280;53183;47.412;18.884;2023-03-23T00:18:49;99113.88;;;5.60;92.29
56721;BME280;53183;47.412;18.884;2023-03-23T00:21:21;99113.38;;;5.72;91.41
56721;BME280;53183;47.412;18.884;2023-03-23T00:24:01;99112.16;;;5.59;91.71
56721;BME280;53183;47.412;18.884;2023-03-23T00:26:28;99114.41;;;5.46;92.19
56721;BME280;53183;47.412;18.884;2023-03-23T00:28:55;99113.94;;;5.36;93.08
56721;BME280;53183;47.412;18.884;2023-03-23T00:31:22;99111.94;;;5.43;92.54
56721;BME280;53183;47.412;18.884;2023-03-23T00:33:48;99105.25;;;5.34;93.02
56721;BME280;53183;47.412;18.884;2023-03-23T00:36:14;99105.47;;;5.30;93.23
56721;BME280;53183;47.412;18.884;2023-03-23T00:38:41;99107.31;;;5.26;93.50
56721;BME280;53183;47.412;18.884;2023-03-23T00:41:12;99102.75;;;5.31;93.53
56721;BME280;53183;47.412;18.884;2023-03-23T00:43:41;99098.56;;;5.27;93.20
56721;BME280;53183;47.412;18.884;2023-03-23T00:46:07;99094.63;;;5.15;93.78
56721;BME280;53183;47.412;18.884;2023-03-23T00:48:38;99094.00;;;5.09;94.11
56721;BME280;53183;47.412;18.884;2023-03-23T00:51:11;99099.09;;;5.13;93.98
56721;BME280;53183;47.412;18.884;2023-03-23T00:53:39;99099.25;;;5.09;94.31
56721;BME280;53183;47.412;18.884;2023-03-23T00:56:07;99094.19;;;5.04;94.28
56721;BME280;53183;47.412;18.884;2023-03-23T00:58:34;99095.78;;;5.08;94.09
56721;BME280;53183;47.412;18.884;2023-03-23T01:01:00;99090.47;;;5.10;94.24
56721;BME280;53183;47.412;18.884;2023-03-23T01:03:26;99092.13;;;5.12;94.21
56721;BME280;53183;47.412;18.884;2023-03-23T01:06:04;99084.34;;;5.11;93.63
56721;BME280;53183;47.412;18.884;2023-03-23T01:08:30;99082.12;;;5.00;94.25
56721;BME280;53183;47.412;18.884;2023-03-23T01:11:05;99081.34;;;4.98;94.63
56721;BME280;53183;47.412;18.884;2023-03-23T01:13:32;99079.44;;;5.02;94.35
56721;BME280;53183;47.412;18.884;2023-03-23T01:15:59;99083.22;;;4.94;94.58
56721;BME280;53183;47.412;18.884;2023-03-23T01:18:25;99081.66;;;4.89;94.86
56721;BME280;53183;47.412;18.884;2023-03-23T01:20:51;99084.34;;;4.87;94.95
56721;BME280;53183;47.412;18.884;2023-03-23T01:23:17;99078.31;;;4.85;95.05
56721;BME280;53183;47.412;18.884;2023-03-23T01:25:43;99081.16;;;4.79;95.19
56721;BME280;53183;47.412;18.884;2023-03-23T01:28:11;99079.63;;;4.97;94.45
56721;BME280;53183;47.412;18.884;2023-03-23T01:30:37;99075.47;;;4.91;94.33
56721;BME280;53183;47.412;18.884;2023-03-23T01:33:03;99072.16;;;4.86;94.75
56721;BME280;53183;47.412;18.884;2023-03-23T01:35:30;99073.28;;;4.79;94.92
56721;BME280;53183;47.412;18.884;2023-03-23T01:37:56;99077.78;;;4.76;95.07
56721;BME280;53183;47.412;18.884;2023-03-23T01:40:22;99072.56;;;4.76;95.16
56721;BME280;53183;47.412;18.884;2023-03-23T01:42:48;99068.28;;;4.73;95.11
56721;BME280;53183;47.412;18.884;2023-03-23T01:45:25;99070.97;;;4.72;95.07
56721;BME280;53183;47.412;18.884;2023-03-23T01:47:56;99069.31;;;4.69;95.21
56721;BME280;53183;47.412;18.884;2023-03-23T01:50:28;99063.97;;;4.72;95.09
56721;BME280;53183;47.412;18.884;2023-03-23T01:52:57;99066.69;;;4.69;95.00
56721;BME280;53183;47.412;18.884;2023-03-23T01:55:26;99066.81;;;4.66;95.12
56721;BME280;53183;47.412;18.884;2023-03-23T01:57:54;99075.56;;;4.65;95.26
56721;BME280;53183;47.412;18.884;2023-03-23T02:00:22;99063.37;;;4.64;95.37
56721;BME280;53183;47.412;18.884;2023-03-23T02:02:50;99064.28;;;4.63;95.41
56721;BME280;53183;47.412;18.884;2023-03-23T02:05:32;99063.37;;;4.64;95.37
56721;BME280;53183;47.412;18.884;2023-03-23T02:08:03;99058.22;;;4.62;95.29
56721;BME280;53183;47.412;18.884;2023-03-23T02:10:32;99062.59;;;4.62;95.39
56721;BME280;53183;47.412;18.884;2023-03-23T02:13:00;99058.09;;;4.65;94.87
56721;BME280;53183;47.412;18.884;2023-03-23T02:15:58;99071.22;;;4.64;95.01
56721;BME280;53183;47.412;18.884;2023-03-23T02:18:50;99067.72;;;4.65;94.97
56721;BME280;53183;47.412;18.884;2023-03-23T02:27:01;99064.50;;;4.57;94.80
56721;BME280;53183;47.412;18.884;2023-03-23T02:32:25;99066.41;;;4.53;94.95
56721;BME280;53183;47.412;18.884;2023-03-23T02:35:00;99068.50;;;4.67;94.52
56721;BME280;53183;47.412;18.884;2023-03-23T02:37:32;99071.47;;;4.58;94.22
56721;BME280;53183;47.412;18.884;2023-03-23T02:40:09;99067.53;;;4.46;95.17
56721;BME280;53183;47.412;18.884;2023-03-23T02:42:41;99071.63;;;4.53;94.91
56721;BME280;53183;47.412;18.884;2023-03-23T02:45:10;99077.19;;;4.44;95.15
56721;BME280;53183;47.412;18.884;2023-03-23T02:47:38;99072.84;;;4.44;95.29
56721;BME280;53183;47.412;18.884;2023-03-23T02:50:08;99079.16;;;4.37;95.43
56721;BME280;53183;47.412;18.884;2023-03-23T02:52:38;99073.94;;;4.37;95.74
56721;BME280;53183;47.412;18.884;2023-03-23T02:55:05;99072.34;;;4.33;95.75
56721;BME280;53183;47.412;18.884;2023-03-23T02:57:33;99072.88;;;4.43;95.30
56721;BME280;53183;47.412;18.884;2023-03-23T03:00:00;99072.44;;;4.30;95.87
56721;BME280;53183;47.412;18.884;2023-03-23T03:02:30;99078.53;;;4.31;95.88
56721;BME280;53183;47.412;18.884;2023-03-23T03:16:01;99081.22;;;4.29;96.20
56721;BME280;53183;47.412;18.884;2023-03-23T03:18:32;99077.88;;;4.24;96.46
56721;BME280;53183;47.412;18.884;2023-03-23T03:21:04;99080.66;;;4.19;96.66
56721;BME280;53183;47.412;18.884;2023-03-23T03:23:33;99074.69;;;4.16;96.75
56721;BME280;53183;47.412;18.884;2023-03-23T03:26:02;99078.22;;;4.15;97.01
56721;BME280;53183;47.412;18.884;2023-03-23T03:28:32;99081.72;;;4.14;97.15
56721;BME280;53183;47.412;18.884;2023-03-23T03:31:01;99085.16;;;4.16;97.07
56721;BME280;53183;47.412;18.884;2023-03-23T03:33:30;99077.44;;;4.11;97.53
56721;BME280;53183;47.412;18.884;2023-03-23T03:36:01;99083.50;;;4.13;97.66
56721;BME280;53183;47.412;18.884;2023-03-23T03:38:28;99084.50;;;4.09;97.82
56721;BME280;53183;47.412;18.884;2023-03-23T03:40:55;99087.06;;;4.11;98.01
56721;BME280;53183;47.412;18.884;2023-03-23T03:43:23;99086.22;;;4.10;97.99
56721;BME280;53183;47.412;18.884;2023-03-23T03:45:49;99085.19;;;4.14;97.89
56721;BME280;53183;47.412;18.884;2023-03-23T03:48:15;99081.81;;;4.11;98.05
56721;BME280;53183;47.412;18.884;2023-03-23T03:50:41;99093.09;;;4.13;98.04
56721;BME280;53183;47.412;18.884;2023-03-23T03:53:07;99092.81;;;4.20;97.95
56721;BME280;53183;47.412;18.884;2023-03-23T03:55:33;99094.59;;;4.20;97.90
56721;BME280;53183;47.412;18.884;2023-03-23T03:58:02;99092.16;;;4.15;98.55
56721;BME280;53183;47.412;18.884;2023-03-23T04:00:31;99094.69;;;4.17;98.51
56721;BME280;53183;47.412;18.884;2023-03-23T04:02:57;99093.09;;;4.13;98.80
56721;BME280;53183;47.412;18.884;2023-03-23T04:05:27;99094.81;;;4.14;98.96
56721;BME280;53183;47.412;18.884;2023-03-23T04:07:54;99099.88;;;4.18;99.07
56721;BME280;53183;47.412;18.884;2023-03-23T04:10:28;99095.44;;;4.20;98.87
56721;BME280;53183;47.412;18.884;2023-03-23T04:12:55;99103.94;;;4.27;97.93
56721;BME280;53183;47.412;18.884;2023-03-23T04:15:24;99102.22;;;4.26;98.22
56721;BME280;53183;47.412;18.884;2023-03-23T04:17:51;99104.69;;;4.31;98.29
56721;BME280;53183;47.412;18.884;2023-03-23T04:20:17;99104.69;;;4.31;98.18
56721;BME280;53183;47.412;18.884;2023-03-23T04:22:47;99102.03;;;4.32;98.25
56721;BME280;53183;47.412;18.884;2023-03-23T04:25:19;99102.34;;;4.23;98.46
56721;BME280;53183;47.412;18.884;2023-03-23T04:27:49;99098.16;;;4.17;98.71
56721;BME280;53183;47.412;18.884;2023-03-23T04:30:21;99100.75;;;4.19;98.95
56721;BME280;53183;47.412;18.884;2023-03-23T04:32:51;99103.94;;;4.27;98.50
56721;BME280;53183;47.412;18.884;2023-03-23T04:35:20;99105.66;;;4.28;98.73
56721;BME280;53183;47.412;18.884;2023-03-23T04:37:47;99108.19;;;4.31;98.35
56721;BME280;53183;47.412;18.884;2023-03-23T04:40:14;99106.41;;;4.32;98.85
56721;BME280;53183;47.412;18.884;2023-03-23T04:42:42;99107.25;;;4.32;98.92
56721;BME280;53183;47.412;18.884;2023-03-23T04:45:19;99106.34;;;4.33;99.00
56721;BME280;53183;47.412;18.884;2023-03-23T04:47:51;99105.56;;;4.31;98.98
56721;BME280;53183;47.412;18.884;2023-03-23T04:50:28;99107.25;;;4.32;99.05
56721;BME280;53183;47.412;18.884;2023-03-23T04:53:00;99099.97;;;4.40;98.86
56721;BME280;53183;47.412;18.884;2023-03-23T04:55:32;99110.03;;;4.53;98.38
56721;BME280;53183;47.412;18.884;2023-03-23T04:58:07;99109.06;;;4.55;98.04
56721;BME280;53183;47.412;18.884;2023-03-23T05:00:34;99105.41;;;4.61;98.11
56721;BME280;53183;47.412;18.884;2023-03-23T05:03:01;99100.78;;;4.67;97.93
56721;BME280;53183;47.412;18.884;2023-03-23T05:05:29;99102.31;;;4.73;97.65
56721;BME280;53183;47.412;18.884;2023-03-23T05:07:57;99102.16;;;4.78;97.44
56721;BME280;53183;47.412;18.884;2023-03-23T05:10:23;99111.38;;;4.88;96.81
56721;BME280;53183;47.412;18.884;2023-03-23T05:12:52;99109.41;;;4.94;96.69
56721;BME280;53183;47.412;18.884;2023-03-23T05:15:19;99113.59;;;4.99;96.46
56721;BME280;53183;47.412;18.884;2023-03-23T05:17:45;99112.13;;;5.15;96.27
56721;BME280;53183;47.412;18.884;2023-03-23T05:20:13;99117.31;;;5.38;95.61
56721;BME280;53183;47.412;18.884;2023-03-23T05:22:41;99114.38;;;5.70;94.27
56721;BME280;53183;47.412;18.884;2023-03-23T05:25:10;99114.25;;;5.95;93.07
56721;BME280;53183;47.412;18.884;2023-03-23T05:27:38;99118.75;;;6.13;92.07
56721;BME280;53183;47.412;18.884;2023-03-23T05:30:09;99117.06;;;6.32;91.57
56721;BME280;53183;47.412;18.884;2023-03-23T05:32:37;99111.72;;;6.54;90.52
56721;BME280;53183;47.412;18.884;2023-03-23T05:35:04;99111.66;;;6.76;90.09
56721;BME280;53183;47.412;18.884;2023-03-23T05:37:30;99122.56;;;7.07;89.47
56721;BME280;53183;47.412;18.884;2023-03-23T05:40:00;99116.75;;;7.38;88.47
56721;BME280;53183;47.412;18.884;2023-03-23T05:42:33;99111.97;;;7.65;87.28
56721;BME280;53183;47.412;18.884;2023-03-23T05:45:02;99111.84;;;7.85;86.13
56721;BME280;53183;47.412;18.884;2023-03-23T05:47:28;99099.63;;;8.02;85.18
56721;BME280;53183;47.412;18.884;2023-03-23T05:49:55;99100.56;;;8.18;83.39
56721;BME280;53183;47.412;18.884;2023-03-23T05:52:22;99106.88;;;8.33;82.61
56721;BME280;53183;47.412;18.884;2023-03-23T05:54:51;99107.72;;;8.51;82.65
56721;BME280;53183;47.412;18.884;2023-03-23T05:57:19;99101.00;;;8.96;80.17
56721;BME280;53183;47.412;18.884;2023-03-23T05:59:48;99100.63;;;9.35;79.28
56721;BME280;53183;47.412;18.884;2023-03-23T06:02:15;99098.22;;;9.62;76.95
56721;BME280;53183;47.412;18.884;2023-03-23T06:04:42;99102.75;;;10.06;74.51
56721;BME280;53183;47.412;18.884;2023-03-23T06:07:09;99098.94;;;10.42;70.56
56721;BME280;53183;47.412;18.884;2023-03-23T06:09:41;99101.22;;;10.62;69.96
56721;BME280;53183;47.412;18.884;2023-03-23T06:12:09;99106.16;;;11.25;68.26
56721;BME280;53183;47.412;18.884;2023-03-23T06:14:36;99101.16;;;12.04;65.18
56721;BME280;53183;47.412;18.884;2023-03-23T06:17:04;99100.13;;;12.84;61.54
56721;BME280;53183;47.412;18.884;2023-03-23T06:19:30;99099.34;;;13.70;57.92
56721;BME280;53183;47.412;18.884;2023-03-23T06:21:57;99093.47;;;14.37;55.30
56721;BME280;53183;47.412;18.884;2023-03-23T06:24:25;99098.47;;;14.88;53.12
56721;BME280;53183;47.412;18.884;2023-03-23T06:26:52;99101.25;;;14.98;52.47
56721;BME280;53183;47.412;18.884;2023-03-23T06:29:18;99103.06;;;15.20;52.51
56721;BME280;53183;47.412;18.884;2023-03-23T06:31:48;99100.75;;;15.27;51.57
56721;BME280;53183;47.412;18.884;2023-03-23T06:34:15;99095.66;;;15.68;50.03
56721;BME280;53183;47.412;18.884;2023-03-23T06:36:46;99088.00;;;15.75;48.95
56721;BME280;53183;47.412;18.884;2023-03-23T06:39:13;99091.41;;;15.77;49.50
56721;BME280;53183;47.412;18.884;2023-03-23T06:41:42;99091.16;;;15.80;48.95
56721;BME280;53183;47.412;18.884;2023-03-23T06:44:08;99095.66;;;15.57;49.31
56721;BME280;53183;47.412;18.884;2023-03-23T06:46:40;99098.22;;;16.02;48.08
56721;BME280;53183;47.412;18.884;2023-03-23T06:49:08;99096.53;;;16.33;48.05
56721;BME280;53183;47.412;18.884;2023-03-23T06:51:35;99099.09;;;16.56;46.80
56721;BME280;53183;47.412;18.884;2023-03-23T06:54:04;99110.00;;;17.16;45.34
56721;BME280;53183;47.412;18.884;2023-03-23T06:56:31;99102.75;;;17.37;44.77
56721;BME280;53183;47.412;18.884;2023-03-23T06:58:58;99109.03;;;17.67;44.41
56721;BME280;53183;47.412;18.884;2023-03-23T07:01:24;99111.38;;;17.50;44.83
56721;BME280;53183;47.412;18.884;2023-03-23T07:03:50;99105.78;;;18.03;43.80
56721;BME280;53183;47.412;18.884;2023-03-23T07:06:18;99107.72;;;18.79;42.00
56721;BME280;53183;47.412;18.884;2023-03-23T07:08:46;99106.72;;;18.61;41.03
56721;BME280;53183;47.412;18.884;2023-03-23T07:11:13;99111.66;;;18.65;41.56
56721;BME280;53183;47.412;18.884;2023-03-23T07:13:39;99106.94;;;19.43;40.08
56721;BME280;53183;47.412;18.884;2023-03-23T07:16:06;99111.56;;;19.14;40.27
56721;BME280;53183;47.412;18.884;2023-03-23T07:18:33;99112.25;;;19.53;39.32
56721;BME280;53183;47.412;18.884;2023-03-23T07:20:59;99108.59;;;19.82;39.08
56721;BME280;53183;47.412;18.884;2023-03-23T07:23:26;99112.38;;;20.25;38.73
56721;BME280;53183;47.412;18.884;2023-03-23T07:25:53;99110.16;;;20.74;36.89
56721;BME280;53183;47.412;18.884;2023-03-23T07:28:23;99116.41;;;21.08;36.58
56721;BME280;53183;47.412;18.884;2023-03-23T07:30:52;99113.78;;;20.47;35.67
56721;BME280;53183;47.412;18.884;2023-03-23T07:33:20;99122.78;;;20.10;37.64
56721;BME280;53183;47.412;18.884;2023-03-23T07:35:47;99123.97;;;19.52;37.68
56721;BME280;53183;47.412;18.884;2023-03-23T07:38:15;99117.87;;;18.56;39.99
56721;BME280;53183;47.412;18.884;2023-03-23T07:40:42;99125.75;;;18.87;39.35
56721;BME280;53183;47.412;18.884;2023-03-23T07:43:10;99129.53;;;18.94;39.27
56721;BME280;53183;47.412;18.884;2023-03-23T07:45:38;99136.97;;;19.10;39.50
56721;BME280;53183;47.412;18.884;2023-03-23T07:48:05;99135.78;;;18.36;41.12
56721;BME280;53183;47.412;18.884;2023-03-23T07:50:32;99135.16;;;18.71;40.98
56721;BME280;53183;47.412;18.884;2023-03-23T07:52:59;99141.41;;;18.52;40.65
56721;BME280;53183;47.412;18.884;2023-03-23T07:55:26;99134.34;;;18.81;40.83
56721;BME280;53183;47.412;18.884;2023-03-23T07:57:55;99141.81;;;18.58;40.88
56721;BME280;53183;47.412;18.884;2023-03-23T08:00:22;99136.88;;;18.04;41.72
56721;BME280;53183;47.412;18.884;2023-03-23T08:02:54;99141.50;;;18.12;42.18
56721;BME280;53183;47.412;18.884;2023-03-23T08:05:22;99137.59;;;18.07;42.49
56721;BME280;53183;47.412;18.884;2023-03-23T08:07:49;99138.00;;;18.31;42.49
56721;BME280;53183;47.412;18.884;2023-03-23T08:10:19;99138.00;;;18.31;41.47
56721;BME280;53183;47.412;18.884;2023-03-23T08:12:55;99141.41;;;18.33;42.67
56721;BME280;53183;47.412;18.884;2023-03-23T08:15:23;99136.16;;;18.70;40.57
56721;BME280;53183;47.412;18.884;2023-03-23T08:17:49;99137.84;;;18.81;41.09
56721;BME280;53183;47.412;18.884;2023-03-23T08:20:17;99134.31;;;18.71;41.24
56721;BME280;53183;47.412;18.884;2023-03-23T08:22:50;99141.69;;;18.49;41.71
56721;BME280;53183;47.412;18.884;2023-03-23T08:25:21;99153.78;;;18.34;41.70
56721;BME280;53183;47.412;18.884;2023-03-23T08:27:50;99147.59;;;18.34;42.54
56721;BME280;53183;47.412;18.884;2023-03-23T08:30:18;99153.63;;;18.45;41.48
56721;BME280;53183;47.412;18.884;2023-03-23T08:32:46;99151.50;;;18.39;42.05
56721;BME280;53183;47.412;18.884;2023-03-23T08:35:13;99155.06;;;18.49;42.09
56721;BME280;53183;47.412;18.884;2023-03-23T08:37:41;99153.75;;;18.05;43.13
56721;BME280;53183;47.412;18.884;2023-03-23T08:40:13;99164.84;;;17.91;43.46
56721;BME280;53183;47.412;18.884;2023-03-23T08:42:43;99155.75;;;17.32;44.19
56721;BME280;53183;47.412;18.884;2023-03-23T08:45:13;99154.75;;;17.73;44.14
56721;BME280;53183;47.412;18.884;2023-03-23T08:47:42;99153.44;;;17.89;43.65
56721;BME280;53183;47.412;18.884;2023-03-23T08:50:12;99158.41;;;18.13;43.08
56721;BME280;53183;47.412;18.884;2023-03-23T08:52:38;99156.13;;;17.98;44.40
56721;BME280;53183;47.412;18.884;2023-03-23T08:55:05;99152.78;;;18.35;44.13
56721;BME280;53183;47.412;18.884;2023-03-23T08:57:35;99156.03;;;18.68;42.59
56721;BME280;53183;47.412;18.884;2023-03-23T09:00:05;99153.22;;;18.60;42.20
56721;BME280;53183;47.412;18.884;2023-03-23T09:02:42;99152.38;;;18.79;42.52
56721;BME280;53183;47.412;18.884;2023-03-23T09:05:11;99162.37;;;18.67;41.62
56721;BME280;53183;47.412;18.884;2023-03-23T09:07:40;99157.16;;;18.65;41.60
56721;BME280;53183;47.412;18.884;2023-03-23T09:10:08;99147.31;;;18.46;42.72
56721;BME280;53183;47.412;18.884;2023-03-23T09:12:35;99153.91;;;18.71;41.50
56721;BME280;53183;47.412;18.884;2023-03-23T09:15:04;99152.09;;;18.72;42.23
56721;BME280;53183;47.412;18.884;2023-03-23T09:17:42;99146.06;;;18.80;42.10
56721;BME280;53183;47.412;18.884;2023-03-23T09:20:09;99156.41;;;19.12;41.22
56721;BME280;53183;47.412;18.884;2023-03-23T09:22:41;99149.28;;;19.30;41.16
56721;BME280;53183;47.412;18.884;2023-03-23T09:25:09;99147.97;;;19.07;41.07
56721;BME280;53183;47.412;18.884;2023-03-23T09:27:37;99141.50;;;19.00;41.92
56721;BME280;53183;47.412;18.884;2023-03-23T09:30:08;99148.16;;;18.66;42.58
56721;BME280;53183;47.412;18.884;2023-03-23T09:32:37;99148.97;;;18.96;42.32
56721;BME280;53183;47.412;18.884;2023-03-23T09:35:06;99149.66;;;18.98;42.25
56721;BME280;53183;47.412;18.884;2023-03-23T09:37:39;99146.03;;;19.36;41.97
56721;BME280;53183;47.412;18.884;2023-03-23T09:40:09;99148.28;;;19.78;41.70
56721;BME280;53183;47.412;18.884;2023-03-23T09:48:04;99136.28;;;20.90;38.80
56721;BME280;53183;47.412;18.884;2023-03-23T09:50:35;99132.31;;;21.02;38.57
56721;BME280;53183;47.412;18.884;2023-03-23T09:53:16;99130.34;;;21.12;38.42
56721;BME280;53183;47.412;18.884;2023-03-23T09:55:45;99125.03;;;21.20;37.95
56721;BME280;53183;47.412;18.884;2023-03-23T09:58:33;99123.59;;;21.60;38.39
56721;BME280;53183;47.412;18.884;2023-03-23T10:01:23;99118.97;;;21.18;38.14
56721;BME280;53183;47.412;18.884;2023-03-23T10:03:58;99116.25;;;21.10;38.45
56721;BME280;53183;47.412;18.884;2023-03-23T10:06:27;99123.59;;;21.00;38.53
56721;BME280;53183;47.412;18.884;2023-03-23T10:08:56;99115.97;;;20.69;39.32
56721;BME280;53183;47.412;18.884;2023-03-23T10:16:42;99114.84;;;20.98;38.67
56721;BME280;53183;47.412;18.884;2023-03-23T10:19:20;99098.91;;;21.30;38.60
56721;BME280;53183;47.412;18.884;2023-03-23T10:21:50;99100.69;;;21.22;38.06
56721;BME280;53183;47.412;18.884;2023-03-23T10:24:24;99096.09;;;21.83;42.21
56721;BME280;53183;47.412;18.884;2023-03-23T10:29:43;99084.72;;;22.05;38.51
56721;BME280;53183;47.412;18.884;2023-03-23T10:32:17;99090.16;;;22.46;36.01
56721;BME280;53183;47.412;18.884;2023-03-23T10:34:58;99084.94;;;22.53;35.73
56721;BME280;53183;47.412;18.884;2023-03-23T10:38:26;99077.84;;;22.76;36.57
56721;BME280;53183;47.412;18.884;2023-03-23T10:40:56;99070.78;;;22.59;34.87
56721;BME280;53183;47.412;18.884;2023-03-23T10:43:25;99064.53;;;22.83;35.86
56721;BME280;53183;47.412;18.884;2023-03-23T10:46:02;99063.72;;;22.74;35.12
56721;BME280;53183;47.412;18.884;2023-03-23T10:48:36;99071.59;;;22.92;35.59
56721;BME280;53183;47.412;18.884;2023-03-23T10:51:05;99068.59;;;22.79;33.58
56721;BME280;53183;47.412;18.884;2023-03-23T10:53:36;99068.94;;;22.67;33.55
56721;BME280;53183;47.412;18.884;2023-03-23T10:56:04;99067.59;;;22.55;34.17
56721;BME280;53183;47.412;18.884;2023-03-23T10:58:33;99069.94;;;22.50;34.63
56721;BME280;53183;47.412;18.884;2023-03-23T11:01:02;99063.25;;;22.54;37.34
56721;BME280;53183;47.412;18.884;2023-03-23T11:03:39;99074.34;;;22.35;33.61
56721;BME280;53183;47.412;18.884;2023-03-23T11:06:09;99067.44;;;22.32;35.04
56721;BME280;53183;47.412;18.884;2023-03-23T11:08:47;99060.22;;;22.24;34.43
56721;BME280;53183;47.412;18.884;2023-03-23T11:11:18;99070.63;;;22.36;34.37
56721;BME280;53183;47.412;18.884;2023-03-23T11:13:47;99066.06;;;22.69;33.57
56721;BME280;53183;47.412;18.884;2023-03-23T11:16:53;99062.84;;;22.74;33.80
56721;BME280;53183;47.412;18.884;2023-03-23T11:19:26;99054.59;;;22.91;33.82
56721;BME280;53183;47.412;18.884;2023-03-23T11:21:55;99057.06;;;23.09;34.04
56721;BME280;53183;47.412;18.884;2023-03-23T11:24:25;99050.56;;;22.96;33.09
56721;BME280;53183;47.412;18.884;2023-03-23T11:26:53;99041.31;;;22.74;35.04
56721;BME280;53183;47.412;18.884;2023-03-23T11:29:24;99036.34;;;23.10;33.56
56721;BME280;53183;47.412;18.884;2023-03-23T11:34:45;99034.56;;;22.94;32.60
56721;BME280;53183;47.412;18.884;2023-03-23T11:37:50;99035.22;;;22.80;33.04
56721;BME280;53183;47.412;18.884;2023-03-23T11:40:26;99031.72;;;22.71;39.11
56721;BME280;53183;47.412;18.884;2023-03-23T11:43:07;99039.00;;;22.46;33.94
56721;BME280;53183;47.412;18.884;2023-03-23T11:45:39;99042.84;;;22.43;33.20
56721;BME280;53183;47.412;18.884;2023-03-23T11:54:15;99030.41;;;22.01;36.17
56721;BME280;53183;47.412;18.884;2023-03-23T11:56:45;99034.19;;;21.74;34.54
56721;BME280;53183;47.412;18.884;2023-03-23T11:59:28;99033.41;;;21.82;37.27
56721;BME280;53183;47.412;18.884;2023-03-23T12:12:59;99022.38;;;21.43;37.12
56721;BME280;53183;47.412;18.884;2023-03-23T12:15:40;99003.56;;;21.43;35.40
56721;BME280;53183;47.412;18.884;2023-03-23T12:18:57;98999.06;;;21.60;35.31
56721;BME280;53183;47.412;18.884;2023-03-23T12:42:58;98980.03;;;21.45;35.27
56721;BME280;53183;47.412;18.884;2023-03-23T12:45:50;98967.13;;;21.65;34.83
56721;BME280;53183;47.412;18.884;2023-03-23T12:48:29;98969.47;;;21.68;34.73
56721;BME280;53183;47.412;18.884;2023-03-23T12:53:28;98964.41;;;21.48;34.61
56721;BME280;53183;47.412;18.884;2023-03-23T12:58:46;98964.94;;;21.52;35.03
56721;BME280;53183;47.412;18.884;2023-03-23T13:01:20;98967.59;;;21.44;35.11
56721;BME280;53183;47.412;18.884;2023-03-23T13:04:12;98958.22;;;21.64;34.81
56721;BME280;53183;47.412;18.884;2023-03-23T13:06:44;98954.88;;;21.70;34.88
56721;BME280;53183;47.412;18.884;2023-03-23T13:09:39;98956.34;;;21.65;34.81
56721;BME280;53183;47.412;18.884;2023-03-23T13:12:08;98964.75;;;21.62;35.07
56721;BME280;53183;47.412;18.884;2023-03-23T13:22:13;98959.91;;;21.73;35.54
56721;BME280;53183;47.412;18.884;2023-03-23T13:24:57;98968.31;;;21.62;35.30
56721;BME280;53183;47.412;18.884;2023-03-23T13:27:26;98962.28;;;21.76;35.01
56721;BME280;53183;47.412;18.884;2023-03-23T13:29:57;98951.84;;;21.65;34.96
56721;BME280;53183;47.412;18.884;2023-03-23T13:32:34;98954.53;;;21.65;35.07
56721;BME280;53183;47.412;18.884;2023-03-23T13:35:03;98953.34;;;21.60;35.55
56721;BME280;53183;47.412;18.884;2023-03-23T13:37:32;98949.63;;;21.52;35.13
56721;BME280;53183;47.412;18.884;2023-03-23T13:42:54;98944.91;;;21.38;35.61
56721;BME280;53183;47.412;18.884;2023-03-23T13:53:27;98928.50;;;21.15;35.87
56721;BME280;53183;47.412;18.884;2023-03-23T13:56:21;98932.75;;;21.26;35.75
56721;BME280;53183;47.412;18.884;2023-03-23T13:58:52;98928.50;;;21.07;36.01
56721;BME280;53183;47.412;18.884;2023-03-23T14:01:37;98934.06;;;21.14;35.90
56721;BME280;53183;47.412;18.884;2023-03-23T14:04:16;98922.47;;;21.13;35.89
56721;BME280;53183;47.412;18.884;2023-03-23T14:06:46;98928.69;;;21.22;36.16
56721;BME280;53183;47.412;18.884;2023-03-23T14:09:21;98940.66;;;21.27;36.28
56721;BME280;53183;47.412;18.884;2023-03-23T14:14:31;98931.63;;;21.37;35.99
56721;BME280;53183;47.412;18.884;2023-03-23T14:17:16;98930.06;;;21.34;35.79
56721;BME280;53183;47.412;18.884;2023-03-23T14:19:47;98924.53;;;21.27;35.82
56721;BME280;53183;47.412;18.884;2023-03-23T14:22:26;98931.94;;;21.34;36.00
56721;BME280;53183;47.412;18.884;2023-03-23T14:25:20;98919.72;;;21.39;35.92
56721;BME280;53183;47.412;18.884;2023-03-23T14:27:47;98920.69;;;21.38;35.36
56721;BME280;53183;47.412;18.884;2023-03-23T14:30:22;98921.47;;;21.14;36.11
56721;BME280;53183;47.412;18.884;2023-03-23T14:32:52;98912.75;;;21.20;35.92
56721;BME280;53183;47.412;18.884;2023-03-23T14:35:26;98918.22;;;21.02;36.11
56721;BME280;53183;47.412;18.884;2023-03-23T14:37:54;98920.84;;;20.78;36.62
56721;BME280;53183;47.412;18.884;2023-03-23T14:40:21;98922.62;;;20.69;36.87
56721;BME280;53183;47.412;18.884;2023-03-23T14:42:50;98930.59;;;20.53;37.20
56721;BME280;53183;47.412;18.884;2023-03-23T14:45:18;98929.84;;;20.43;37.18
56721;BME280;53183;47.412;18.884;2023-03-23T14:47:54;98926.50;;;20.41;37.45
56721;BME280;53183;47.412;18.884;2023-03-23T14:50:49;98924.25;;;20.54;37.61
56721;BME280;53183;47.412;18.884;2023-03-23T14:53:24;98920.28;;;20.66;37.08
56721;BME280;53183;47.412;18.884;2023-03-23T14:55:52;98921.84;;;20.77;37.26